sensor_id;sensor_type;location;lat;lon;timestamp;pressure;altitude;pressure_sealevel;temperature;humidity
76864;BME280;65834;52.364;9.754;2023-07-22T00:01:15;100593.75;;;15.57;68.48
76864;BME280;65834;52.364;9.754;2023-07-22T00:03:45;100599.00;;;15.59;68.46
76864;BME280;65834;52.364;9.754;2023-07-22T00:06:14;100596.94;;;15.54;68.69
76864;BME280;65834;52.364;9.754;2023-07-22T00:08:44;100586.72;;;15.50;68.59
76864;BME280;65834;52.364;9.754;2023-07-22T00:11:16;100600.34;;;15.50;68.65
76864;BME280;65834;52.364;9.754;2023-07-22T00:13:46;100590.28;;;15.50;68.27
76864;BME280;65834;52.364;9.754;2023-07-22T00:16:16;100595.72;;;15.50;68.49
76864;BME280;65834;52.364;9.754;2023-07-22T00:18:46;100599.22;;;15.57;67.71
76864;BME280;65834;52.364;9.754;2023-07-22T00:21:16;100598.78;;;15.60;67.62
76864;BME280;65834;52.364;9.754;2023-07-22T00:23:45;100597.81;;;15.48;67.80
76864;BME280;65834;52.364;9.754;2023-07-22T00:26:18;100597.81;;;15.42;68.00
76864;BME280;65834;52.364;9.754;2023-07-22T00:28:47;100607.00;;;15.54;67.84
76864;BME280;65834;52.364;9.754;2023-07-22T00:31:17;100610.41;;;15.49;67.89
76864;BME280;65834;52.364;9.754;2023-07-22T00:33:47;100608.28;;;15.51;67.67
76864;BME280;65834;52.364;9.754;2023-07-22T00:36:16;100605.16;;;15.48;67.77
76864;BME280;65834;52.364;9.754;2023-07-22T00:38:46;100606.00;;;15.48;67.51
76864;BME280;65834;52.364;9.754;2023-07-22T00:41:18;100603.69;;;15.45;67.98
76864;BME280;65834;52.364;9.754;2023-07-22T00:43:48;100601.38;;;15.42;67.67
76864;BME280;65834;52.364;9.754;2023-07-22T00:46:18;100603.72;;;15.39;67.90
76864;BME280;65834;52.364;9.754;2023-07-22T00:48:48;100602.22;;;15.43;67.69
76864;BME280;65834;52.364;9.754;2023-07-22T00:51:17;100599.50;;;15.43;67.82
76864;BME280;65834;52.364;9.754;2023-07-22T00:53:49;100606.84;;;15.49;67.29
76864;BME280;65834;52.364;9.754;2023-07-22T00:56:21;100600.34;;;15.43;67.75
76864;BME280;65834;52.364;9.754;2023-07-22T00:58:51;100602.88;;;15.38;67.53
76864;BME280;65834;52.364;9.754;2023-07-22T01:01:21;100605.28;;;15.22;68.18
76864;BME280;65834;52.364;9.754;2023-07-22T01:03:51;100589.78;;;15.22;68.13
76864;BME280;65834;52.364;9.754;2023-07-22T01:06:21;100590.81;;;15.21;68.20
76864;BME280;65834;52.364;9.754;2023-07-22T01:08:52;100595.44;;;15.20;68.19
76864;BME280;65834;52.364;9.754;2023-07-22T01:11:24;100588.28;;;15.26;67.83
76864;BME280;65834;52.364;9.754;2023-07-22T01:13:53;100593.13;;;15.24;68.10
76864;BME280;65834;52.364;9.754;2023-07-22T01:16:26;100592.63;;;15.34;67.67
76864;BME280;65834;52.364;9.754;2023-07-22T01:18:56;100590.56;;;15.29;67.87
76864;BME280;65834;52.364;9.754;2023-07-22T01:21:27;100592.69;;;15.27;67.80
76864;BME280;65834;52.364;9.754;2023-07-22T01:24:00;100597.72;;;15.24;68.00
76864;BME280;65834;52.364;9.754;2023-07-22T01:26:30;100600.28;;;15.18;68.11
76864;BME280;65834;52.364;9.754;2023-07-22T01:29:04;100599.88;;;15.15;68.29
76864;BME280;65834;52.364;9.754;2023-07-22T01:31:34;100597.19;;;15.08;68.55
76864;BME280;65834;52.364;9.754;2023-07-22T01:34:05;100596.59;;;15.00;68.75
76864;BME280;65834;52.364;9.754;2023-07-22T01:36:34;100594.28;;;15.03;68.65
76864;BME280;65834;52.364;9.754;2023-07-22T01:39:06;100595.56;;;15.01;68.94
76864;BME280;65834;52.364;9.754;2023-07-22T01:41:37;100585.31;;;14.90;69.13
76864;BME280;65834;52.364;9.754;2023-07-22T01:44:07;100586.97;;;14.97;68.70
76864;BME280;65834;52.364;9.754;2023-07-22T01:46:37;100585.47;;;15.01;68.29
76864;BME280;65834;52.364;9.754;2023-07-22T01:49:10;100592.63;;;14.96;68.78
76864;BME280;65834;52.364;9.754;2023-07-22T01:51:40;100597.06;;;14.90;69.35
76864;BME280;65834;52.364;9.754;2023-07-22T01:56:51;100590.38;;;14.86;69.04
76864;BME280;65834;52.364;9.754;2023-07-22T01:59:21;100588.28;;;14.88;69.29
76864;BME280;65834;52.364;9.754;2023-07-22T02:01:51;100581.13;;;14.94;68.60
76864;BME280;65834;52.364;9.754;2023-07-22T02:04:20;100593.50;;;14.90;68.87
76864;BME280;65834;52.364;9.754;2023-07-22T02:06:50;100582.84;;;14.88;68.85
76864;BME280;65834;52.364;9.754;2023-07-22T02:09:22;100588.25;;;14.95;68.72
76864;BME280;65834;52.364;9.754;2023-07-22T02:11:52;100586.78;;;14.92;68.45
76864;BME280;65834;52.364;9.754;2023-07-22T02:14:22;100585.53;;;14.95;68.24
76864;BME280;65834;52.364;9.754;2023-07-22T02:16:51;100589.13;;;14.89;68.36
76864;BME280;65834;52.364;9.754;2023-07-22T02:19:21;100599.38;;;14.87;68.40
76864;BME280;65834;52.364;9.754;2023-07-22T02:21:51;100598.94;;;14.90;68.43
76864;BME280;65834;52.364;9.754;2023-07-22T02:24:23;100601.06;;;14.88;68.70
76864;BME280;65834;52.364;9.754;2023-07-22T02:26:53;100595.66;;;14.75;69.13
76864;BME280;65834;52.364;9.754;2023-07-22T02:29:22;100605.69;;;14.81;68.87
76864;BME280;65834;52.364;9.754;2023-07-22T02:31:52;100601.72;;;14.77;68.75
76864;BME280;65834;52.364;9.754;2023-07-22T02:34:21;100603.38;;;14.78;68.84
76864;BME280;65834;52.364;9.754;2023-07-22T02:36:51;100599.38;;;14.87;68.55
76864;BME280;65834;52.364;9.754;2023-07-22T02:39:23;100601.69;;;14.83;68.38
76864;BME280;65834;52.364;9.754;2023-07-22T02:41:53;100600.66;;;14.78;68.75
76864;BME280;65834;52.364;9.754;2023-07-22T02:44:23;100601.91;;;14.82;68.54
76864;BME280;65834;52.364;9.754;2023-07-22T02:46:53;100599.63;;;14.79;68.45
76864;BME280;65834;52.364;9.754;2023-07-22T02:49:22;100605.91;;;14.86;68.32
76864;BME280;65834;52.364;9.754;2023-07-22T02:51:52;100613.41;;;14.90;68.04
76864;BME280;65834;52.364;9.754;2023-07-22T02:54:24;100616.56;;;14.87;67.98
76864;BME280;65834;52.364;9.754;2023-07-22T02:56:53;100615.13;;;14.78;68.24
76864;BME280;65834;52.364;9.754;2023-07-22T02:59:23;100617.00;;;14.84;68.01
76864;BME280;65834;52.364;9.754;2023-07-22T03:01:51;100620.78;;;14.77;68.25
76864;BME280;65834;52.364;9.754;2023-07-22T03:04:20;100620.41;;;14.60;68.41
76864;BME280;65834;52.364;9.754;2023-07-22T03:06:50;100622.47;;;14.71;68.07
76864;BME280;65834;52.364;9.754;2023-07-22T03:09:19;100624.59;;;14.62;68.45
76864;BME280;65834;52.364;9.754;2023-07-22T03:11:52;100620.16;;;14.75;67.90
76864;BME280;65834;52.364;9.754;2023-07-22T03:14:23;100623.31;;;14.65;68.17
76864;BME280;65834;52.364;9.754;2023-07-22T03:16:53;100615.56;;;14.69;68.28
76864;BME280;65834;52.364;9.754;2023-07-22T03:19:23;100621.84;;;14.69;67.83
76864;BME280;65834;52.364;9.754;2023-07-22T03:21:53;100629.59;;;14.72;67.87
76864;BME280;65834;52.364;9.754;2023-07-22T03:24:22;100626.84;;;14.79;67.75
76864;BME280;65834;52.364;9.754;2023-07-22T03:26:55;100632.34;;;14.65;68.25
76864;BME280;65834;52.364;9.754;2023-07-22T03:29:24;100635.50;;;14.62;68.42
76864;BME280;65834;52.364;9.754;2023-07-22T03:31:54;100631.72;;;14.70;67.93
76864;BME280;65834;52.364;9.754;2023-07-22T03:34:24;100643.41;;;14.71;67.62
76864;BME280;65834;52.364;9.754;2023-07-22T03:36:54;100640.09;;;14.62;67.93
76864;BME280;65834;52.364;9.754;2023-07-22T03:39:23;100649.94;;;14.56;68.19
76864;BME280;65834;52.364;9.754;2023-07-22T03:41:56;100643.47;;;14.51;68.53
76864;BME280;65834;52.364;9.754;2023-07-22T03:44:25;100653.72;;;14.55;68.45
76864;BME280;65834;52.364;9.754;2023-07-22T03:46:56;100647.84;;;14.58;68.44
76864;BME280;65834;52.364;9.754;2023-07-22T03:49:26;100649.34;;;14.54;68.51
76864;BME280;65834;52.364;9.754;2023-07-22T03:51:55;100653.53;;;14.50;68.72
76864;BME280;65834;52.364;9.754;2023-07-22T03:54:25;100655.41;;;14.50;68.75
76864;BME280;65834;52.364;9.754;2023-07-22T03:56:57;100649.13;;;14.43;69.31
76864;BME280;65834;52.364;9.754;2023-07-22T03:59:27;100658.97;;;14.44;69.12
76864;BME280;65834;52.364;9.754;2023-07-22T04:01:56;100648.09;;;14.44;69.44
76864;BME280;65834;52.364;9.754;2023-07-22T04:04:26;100649.16;;;14.36;69.77
76864;BME280;65834;52.364;9.754;2023-07-22T04:06:55;100650.63;;;14.45;69.48
76864;BME280;65834;52.364;9.754;2023-07-22T04:09:27;100665.47;;;14.43;69.68
76864;BME280;65834;52.364;9.754;2023-07-22T04:11:59;100651.44;;;14.46;69.50
76864;BME280;65834;52.364;9.754;2023-07-22T04:14:29;100645.59;;;14.42;69.67
76864;BME280;65834;52.364;9.754;2023-07-22T04:16:59;100651.66;;;14.44;69.52
76864;BME280;65834;52.364;9.754;2023-07-22T04:19:31;100653.75;;;14.36;69.84
76864;BME280;65834;52.364;9.754;2023-07-22T04:22:01;100657.09;;;14.38;69.93
76864;BME280;65834;52.364;9.754;2023-07-22T04:24:31;100651.41;;;14.52;69.32
76864;BME280;65834;52.364;9.754;2023-07-22T04:27:03;100660.44;;;14.46;69.38
76864;BME280;65834;52.364;9.754;2023-07-22T04:29:33;100656.44;;;14.49;69.42
76864;BME280;65834;52.364;9.754;2023-07-22T04:32:07;100657.28;;;14.56;69.11
76864;BME280;65834;52.364;9.754;2023-07-22T04:34:36;100655.81;;;14.53;69.13
76864;BME280;65834;52.364;9.754;2023-07-22T04:37:06;100662.72;;;14.56;69.26
76864;BME280;65834;52.364;9.754;2023-07-22T04:39:36;100666.72;;;14.53;69.20
76864;BME280;65834;52.364;9.754;2023-07-22T04:42:09;100663.13;;;14.59;68.92
76864;BME280;65834;52.364;9.754;2023-07-22T04:44:38;100662.09;;;14.60;69.04
76864;BME280;65834;52.364;9.754;2023-07-22T04:47:08;100664.16;;;14.65;69.08
76864;BME280;65834;52.364;9.754;2023-07-22T04:49:38;100665.44;;;14.69;68.46
76864;BME280;65834;52.364;9.754;2023-07-22T04:52:07;100668.16;;;14.69;68.89
76864;BME280;65834;52.364;9.754;2023-07-22T04:54:37;100676.72;;;14.73;68.29
76864;BME280;65834;52.364;9.754;2023-07-22T04:57:10;100670.84;;;14.76;68.81
76864;BME280;65834;52.364;9.754;2023-07-22T04:59:39;100671.69;;;14.76;68.40
76864;BME280;65834;52.364;9.754;2023-07-22T05:02:09;100676.72;;;14.79;68.25
76864;BME280;65834;52.364;9.754;2023-07-22T05:04:38;100678.78;;;14.84;68.27
76864;BME280;65834;52.364;9.754;2023-07-22T05:07:08;100673.56;;;14.89;68.36
76864;BME280;65834;52.364;9.754;2023-07-22T05:09:37;100672.88;;;14.93;67.90
76864;BME280;65834;52.364;9.754;2023-07-22T05:12:10;100669.34;;;14.86;68.26
76864;BME280;65834;52.364;9.754;2023-07-22T05:14:39;100675.59;;;15.00;67.75
76864;BME280;65834;52.364;9.754;2023-07-22T05:17:09;100681.03;;;15.00;67.66
76864;BME280;65834;52.364;9.754;2023-07-22T05:19:39;100682.53;;;14.96;67.90
76864;BME280;65834;52.364;9.754;2023-07-22T05:22:08;100686.53;;;14.87;68.38
76864;BME280;65834;52.364;9.754;2023-07-22T05:24:38;100689.41;;;14.98;68.26
76864;BME280;65834;52.364;9.754;2023-07-22T05:27:10;100687.34;;;15.00;68.33
76864;BME280;65834;52.364;9.754;2023-07-22T05:29:40;100691.09;;;15.06;67.94
76864;BME280;65834;52.364;9.754;2023-07-22T05:32:09;100690.84;;;15.07;67.75
76864;BME280;65834;52.364;9.754;2023-07-22T05:34:58;100694.84;;;15.05;67.74
76864;BME280;65834;52.364;9.754;2023-07-22T05:37:28;100689.63;;;15.03;68.04
76864;BME280;65834;52.364;9.754;2023-07-22T05:39:58;100691.25;;;15.11;67.98
76864;BME280;65834;52.364;9.754;2023-07-22T05:42:31;100687.75;;;15.04;68.31
76864;BME280;65834;52.364;9.754;2023-07-22T05:45:02;100700.88;;;15.13;68.14
76864;BME280;65834;52.364;9.754;2023-07-22T05:47:33;100696.94;;;15.16;67.90
76864;BME280;65834;52.364;9.754;2023-07-22T05:50:04;100700.47;;;15.16;67.81
76864;BME280;65834;52.364;9.754;2023-07-22T05:52:34;100699.84;;;15.14;67.79
76864;BME280;65834;52.364;9.754;2023-07-22T05:55:04;100704.47;;;15.14;67.96
76864;BME280;65834;52.364;9.754;2023-07-22T05:57:37;100702.78;;;15.19;67.76
76864;BME280;65834;52.364;9.754;2023-07-22T06:00:07;100702.28;;;15.29;67.59
76864;BME280;65834;52.364;9.754;2023-07-22T06:02:40;100709.00;;;15.33;67.56
76864;BME280;65834;52.364;9.754;2023-07-22T06:05:09;100705.84;;;15.36;67.29
76864;BME280;65834;52.364;9.754;2023-07-22T06:07:39;100700.25;;;15.25;67.10
76864;BME280;65834;52.364;9.754;2023-07-22T06:10:09;100702.28;;;15.29;67.52
76864;BME280;65834;52.364;9.754;2023-07-22T06:12:42;100709.84;;;15.34;67.38
76864;BME280;65834;52.364;9.754;2023-07-22T06:15:11;100703.28;;;15.48;66.95
76864;BME280;65834;52.364;9.754;2023-07-22T06:17:41;100710.41;;;15.55;66.61
76864;BME280;65834;52.364;9.754;2023-07-22T06:20:11;100711.66;;;15.59;66.57
76864;BME280;65834;52.364;9.754;2023-07-22T06:22:41;100713.31;;;15.60;66.33
76864;BME280;65834;52.364;9.754;2023-07-22T06:25:10;100710.78;;;15.65;65.84
76864;BME280;65834;52.364;9.754;2023-07-22T06:27:43;100717.25;;;15.71;66.10
76864;BME280;65834;52.364;9.754;2023-07-22T06:30:12;100721.16;;;15.82;65.64
76864;BME280;65834;52.364;9.754;2023-07-22T06:32:42;100718.63;;;15.87;65.57
76864;BME280;65834;52.364;9.754;2023-07-22T06:35:12;100717.97;;;15.85;65.64
76864;BME280;65834;52.364;9.754;2023-07-22T06:37:41;100713.94;;;15.94;64.94
76864;BME280;65834;52.364;9.754;2023-07-22T06:40:11;100715.66;;;15.88;65.63
76864;BME280;65834;52.364;9.754;2023-07-22T06:42:43;100713.13;;;15.93;65.05
76864;BME280;65834;52.364;9.754;2023-07-22T06:45:13;100719.59;;;15.99;64.93
76864;BME280;65834;52.364;9.754;2023-07-22T06:47:43;100719.97;;;16.02;64.88
76864;BME280;65834;52.364;9.754;2023-07-22T06:50:13;100718.94;;;15.97;65.03
76864;BME280;65834;52.364;9.754;2023-07-22T06:52:45;100725.88;;;15.99;65.17
76864;BME280;65834;52.364;9.754;2023-07-22T06:55:15;100725.88;;;15.99;65.41
76864;BME280;65834;52.364;9.754;2023-07-22T06:57:48;100719.09;;;16.08;65.58
76864;BME280;65834;52.364;9.754;2023-07-22T07:00:18;100722.00;;;16.13;64.92
76864;BME280;65834;52.364;9.754;2023-07-22T07:02:47;100719.44;;;16.18;64.80
76864;BME280;65834;52.364;9.754;2023-07-22T07:05:17;100722.94;;;16.25;64.26
76864;BME280;65834;52.364;9.754;2023-07-22T07:07:49;100718.72;;;16.30;63.86
76864;BME280;65834;52.364;9.754;2023-07-22T07:10:18;100718.03;;;16.34;63.69
76864;BME280;65834;52.364;9.754;2023-07-22T07:12:50;100723.06;;;16.37;63.54
76864;BME280;65834;52.364;9.754;2023-07-22T07:15:20;100719.66;;;16.42;63.40
76864;BME280;65834;52.364;9.754;2023-07-22T07:17:49;100716.03;;;16.48;62.99
76864;BME280;65834;52.364;9.754;2023-07-22T07:20:19;100717.72;;;16.49;63.28
76864;BME280;65834;52.364;9.754;2023-07-22T07:22:49;100715.78;;;16.56;63.49
76864;BME280;65834;52.364;9.754;2023-07-22T07:25:18;100718.47;;;16.62;62.79
76864;BME280;65834;52.364;9.754;2023-07-22T07:27:51;100725.81;;;16.62;62.75
76864;BME280;65834;52.364;9.754;2023-07-22T07:30:20;100722.41;;;16.66;62.42
76864;BME280;65834;52.364;9.754;2023-07-22T07:32:50;100715.06;;;16.67;62.18
76864;BME280;65834;52.364;9.754;2023-07-22T07:35:19;100720.28;;;16.68;62.30
76864;BME280;65834;52.364;9.754;2023-07-22T07:37:49;100736.38;;;16.76;61.96
76864;BME280;65834;52.364;9.754;2023-07-22T07:40:19;100725.09;;;16.73;61.66
76864;BME280;65834;52.364;9.754;2023-07-22T07:42:51;100732.00;;;16.75;61.87
76864;BME280;65834;52.364;9.754;2023-07-22T07:45:21;100728.19;;;16.76;61.72
76864;BME280;65834;52.364;9.754;2023-07-22T07:47:50;100728.13;;;16.83;61.71
76864;BME280;65834;52.364;9.754;2023-07-22T07:50:20;100736.72;;;16.87;61.54
76864;BME280;65834;52.364;9.754;2023-07-22T07:52:50;100724.88;;;16.93;62.01
76864;BME280;65834;52.364;9.754;2023-07-22T07:55:19;100730.13;;;16.94;61.68
76864;BME280;65834;52.364;9.754;2023-07-22T07:57:51;100730.13;;;16.94;61.50
76864;BME280;65834;52.364;9.754;2023-07-22T08:00:21;100733.31;;;16.91;61.12
76864;BME280;65834;52.364;9.754;2023-07-22T08:02:51;100738.78;;;16.91;61.29
76864;BME280;65834;52.364;9.754;2023-07-22T08:05:20;100748.16;;;16.95;61.67
76864;BME280;65834;52.364;9.754;2023-07-22T08:07:53;100739.31;;;17.00;61.92
76864;BME280;65834;52.364;9.754;2023-07-22T08:10:22;100737.41;;;17.00;61.25
76864;BME280;65834;52.364;9.754;2023-07-22T08:12:54;100740.16;;;17.00;61.18
76864;BME280;65834;52.364;9.754;2023-07-22T08:15:24;100736.97;;;17.03;61.31
76864;BME280;65834;52.364;9.754;2023-07-22T08:17:54;100740.53;;;17.04;61.36
76864;BME280;65834;52.364;9.754;2023-07-22T08:20:23;100735.28;;;17.02;61.17
76864;BME280;65834;52.364;9.754;2023-07-22T08:22:53;100737.09;;;17.08;61.06
76864;BME280;65834;52.364;9.754;2023-07-22T08:25:23;100740.22;;;17.12;60.81
76864;BME280;65834;52.364;9.754;2023-07-22T08:27:55;100742.50;;;17.15;60.74
76864;BME280;65834;52.364;9.754;2023-07-22T08:30:24;100733.00;;;17.17;60.08
76864;BME280;65834;52.364;9.754;2023-07-22T08:32:54;100733.63;;;17.19;60.08
76864;BME280;65834;52.364;9.754;2023-07-22T08:35:24;100735.28;;;17.20;59.68
76864;BME280;65834;52.364;9.754;2023-07-22T08:37:53;100742.19;;;17.23;59.80
76864;BME280;65834;52.364;9.754;2023-07-22T08:40:23;100745.56;;;17.25;59.55
76864;BME280;65834;52.364;9.754;2023-07-22T08:42:55;100748.88;;;17.27;59.50
76864;BME280;65834;52.364;9.754;2023-07-22T08:45:25;100748.22;;;17.31;59.67
76864;BME280;65834;52.364;9.754;2023-07-22T08:47:59;100744.78;;;17.36;59.59
76864;BME280;65834;52.364;9.754;2023-07-22T08:50:34;100746.38;;;17.44;59.47
76864;BME280;65834;52.364;9.754;2023-07-22T08:53:05;100743.03;;;17.42;60.00
76864;BME280;65834;52.364;9.754;2023-07-22T08:55:36;100737.94;;;17.45;59.80
76864;BME280;65834;52.364;9.754;2023-07-22T08:58:10;100736.28;;;17.44;59.95
76864;BME280;65834;52.364;9.754;2023-07-22T09:00:40;100743.19;;;17.47;59.62
76864;BME280;65834;52.364;9.754;2023-07-22T09:03:11;100739.63;;;17.46;60.13
76864;BME280;65834;52.364;9.754;2023-07-22T09:05:42;100743.78;;;17.49;60.11
76864;BME280;65834;52.364;9.754;2023-07-22T09:08:13;100743.78;;;17.49;60.00
76864;BME280;65834;52.364;9.754;2023-07-22T09:10:44;100744.03;;;17.47;60.44
76864;BME280;65834;52.364;9.754;2023-07-22T09:13:18;100741.63;;;17.51;60.94
76864;BME280;65834;52.364;9.754;2023-07-22T09:15:49;100733.22;;;17.52;60.92
76864;BME280;65834;52.364;9.754;2023-07-22T09:18:20;100736.56;;;17.54;60.51
76864;BME280;65834;52.364;9.754;2023-07-22T09:20:50;100727.06;;;17.57;60.57
76864;BME280;65834;52.364;9.754;2023-07-22T09:23:32;100734.75;;;17.66;59.50
76864;BME280;65834;52.364;9.754;2023-07-22T09:26:11;100725.69;;;17.66;59.43
76864;BME280;65834;52.364;9.754;2023-07-22T09:28:54;100724.75;;;17.72;59.08
76864;BME280;65834;52.364;9.754;2023-07-22T09:31:25;100726.44;;;17.73;58.54
76864;BME280;65834;52.364;9.754;2023-07-22T09:34:09;100726.22;;;17.74;58.66
76864;BME280;65834;52.364;9.754;2023-07-22T09:36:50;100722.66;;;17.74;58.81
76864;BME280;65834;52.364;9.754;2023-07-22T09:39:20;100716.47;;;17.78;58.66
76864;BME280;65834;52.364;9.754;2023-07-22T09:41:50;100720.66;;;17.81;59.02
76864;BME280;65834;52.364;9.754;2023-07-22T09:44:22;100716.38;;;17.85;59.12
76864;BME280;65834;52.364;9.754;2023-07-22T09:46:52;100708.44;;;17.95;58.73
76864;BME280;65834;52.364;9.754;2023-07-22T09:49:22;100719.16;;;17.97;59.03
76864;BME280;65834;52.364;9.754;2023-07-22T09:51:51;100726.31;;;17.98;59.08
76864;BME280;65834;52.364;9.754;2023-07-22T09:54:28;100720.59;;;17.99;58.92
76864;BME280;65834;52.364;9.754;2023-07-22T09:56:58;100712.28;;;18.06;59.79
76864;BME280;65834;52.364;9.754;2023-07-22T09:59:31;100721.94;;;18.08;59.27
76864;BME280;65834;52.364;9.754;2023-07-22T10:02:02;100713.72;;;18.08;59.41
76864;BME280;65834;52.364;9.754;2023-07-22T10:04:33;100715.63;;;18.08;59.63
76864;BME280;65834;52.364;9.754;2023-07-22T10:07:05;100715.84;;;18.06;59.56
76864;BME280;65834;52.364;9.754;2023-07-22T10:09:38;100711.22;;;18.07;59.35
76864;BME280;65834;52.364;9.754;2023-07-22T10:12:08;100715.63;;;18.08;59.03
76864;BME280;65834;52.364;9.754;2023-07-22T10:14:41;100719.44;;;18.18;57.86
76864;BME280;65834;52.364;9.754;2023-07-22T10:17:11;100709.81;;;18.16;58.00
76864;BME280;65834;52.364;9.754;2023-07-22T10:19:41;100712.69;;;18.21;57.63
76864;BME280;65834;52.364;9.754;2023-07-22T10:22:11;100712.56;;;18.27;57.76
76864;BME280;65834;52.364;9.754;2023-07-22T10:24:41;100713.50;;;18.21;58.16
76864;BME280;65834;52.364;9.754;2023-07-22T10:27:14;100708.63;;;18.23;58.06
76864;BME280;65834;52.364;9.754;2023-07-22T10:29:48;100703.75;;;18.37;56.20
76864;BME280;65834;52.364;9.754;2023-07-22T10:32:17;100704.13;;;18.29;57.23
76864;BME280;65834;52.364;9.754;2023-07-22T10:34:47;100696.75;;;18.29;56.98
76864;BME280;65834;52.364;9.754;2023-07-22T10:37:17;100695.69;;;18.42;55.69
76864;BME280;65834;52.364;9.754;2023-07-22T10:39:51;100701.88;;;18.37;56.13
76864;BME280;65834;52.364;9.754;2023-07-22T10:42:25;100699.50;;;18.41;55.84
76864;BME280;65834;52.364;9.754;2023-07-22T10:45:00;100702.69;;;18.38;56.10
76864;BME280;65834;52.364;9.754;2023-07-22T10:47:34;100703.28;;;18.40;56.20
76864;BME280;65834;52.364;9.754;2023-07-22T10:50:06;100708.19;;;18.38;56.29
76864;BME280;65834;52.364;9.754;2023-07-22T10:52:40;100703.66;;;18.43;54.79
76864;BME280;65834;52.364;9.754;2023-07-22T10:55:17;100698.78;;;18.46;56.00
76864;BME280;65834;52.364;9.754;2023-07-22T10:57:48;100702.13;;;18.48;56.36
76864;BME280;65834;52.364;9.754;2023-07-22T11:00:22;100703.13;;;18.76;55.18
76864;BME280;65834;52.364;9.754;2023-07-22T11:03:09;100694.28;;;18.74;55.24
76864;BME280;65834;52.364;9.754;2023-07-22T11:05:49;100680.72;;;18.79;55.33
76864;BME280;65834;52.364;9.754;2023-07-22T11:08:37;100682.34;;;18.92;54.45
76864;BME280;65834;52.364;9.754;2023-07-22T11:11:08;100679.50;;;18.87;54.97
76864;BME280;65834;52.364;9.754;2023-07-22T11:13:38;100682.84;;;18.77;55.47
76864;BME280;65834;52.364;9.754;2023-07-22T11:16:14;100676.66;;;18.82;55.01
76864;BME280;65834;52.364;9.754;2023-07-22T11:18:45;100682.00;;;18.77;54.70
76864;BME280;65834;52.364;9.754;2023-07-22T11:21:14;100678.56;;;18.81;54.88
76864;BME280;65834;52.364;9.754;2023-07-22T11:23:44;100676.88;;;18.80;54.72
76864;BME280;65834;52.364;9.754;2023-07-22T11:26:15;100675.06;;;18.86;54.97
76864;BME280;65834;52.364;9.754;2023-07-22T11:28:46;100667.69;;;18.86;54.63
76864;BME280;65834;52.364;9.754;2023-07-22T11:31:18;100672.22;;;18.92;53.64
76864;BME280;65834;52.364;9.754;2023-07-22T11:33:48;100676.75;;;18.87;53.83
76864;BME280;65834;52.364;9.754;2023-07-22T11:36:17;100678.91;;;18.85;54.02
76864;BME280;65834;52.364;9.754;2023-07-22T11:38:47;100667.34;;;18.83;54.46
76864;BME280;65834;52.364;9.754;2023-07-22T11:41:17;100673.91;;;18.82;54.61
76864;BME280;65834;52.364;9.754;2023-07-22T11:43:47;100671.53;;;18.85;54.54
76864;BME280;65834;52.364;9.754;2023-07-22T11:46:19;100666.97;;;18.91;54.04
76864;BME280;65834;52.364;9.754;2023-07-22T11:48:50;100666.72;;;18.92;54.36
76864;BME280;65834;52.364;9.754;2023-07-22T11:51:21;100661.16;;;18.87;55.00
76864;BME280;65834;52.364;9.754;2023-07-22T11:53:53;100674.38;;;18.90;54.84
76864;BME280;65834;52.364;9.754;2023-07-22T11:56:26;100669.81;;;18.96;54.45
76864;BME280;65834;52.364;9.754;2023-07-22T11:58:56;100669.13;;;19.01;53.73
76864;BME280;65834;52.364;9.754;2023-07-22T12:01:32;100672.56;;;18.96;54.45
76864;BME280;65834;52.364;9.754;2023-07-22T12:04:10;100656.84;;;18.91;54.30
76864;BME280;65834;52.364;9.754;2023-07-22T12:06:40;100669.94;;;18.89;54.20
76864;BME280;65834;52.364;9.754;2023-07-22T12:09:10;100669.94;;;18.89;54.12
76864;BME280;65834;52.364;9.754;2023-07-22T12:11:40;100669.13;;;18.89;54.68
76864;BME280;65834;52.364;9.754;2023-07-22T12:14:10;100671.63;;;18.90;54.10
76864;BME280;65834;52.364;9.754;2023-07-22T12:16:44;100663.75;;;18.94;54.59
76864;BME280;65834;52.364;9.754;2023-07-22T12:19:13;100661.03;;;18.94;54.73
76864;BME280;65834;52.364;9.754;2023-07-22T12:21:43;100663.28;;;18.97;54.58
76864;BME280;65834;52.364;9.754;2023-07-22T12:24:13;100659.91;;;19.07;54.70
76864;BME280;65834;52.364;9.754;2023-07-22T12:26:43;100649.88;;;19.12;54.67
76864;BME280;65834;52.364;9.754;2023-07-22T12:29:13;100658.81;;;19.19;54.26
76864;BME280;65834;52.364;9.754;2023-07-22T12:31:45;100653.88;;;19.33;54.49
76864;BME280;65834;52.364;9.754;2023-07-22T12:34:14;100653.53;;;19.41;54.59
76864;BME280;65834;52.364;9.754;2023-07-22T12:36:44;100647.06;;;19.47;54.50
76864;BME280;65834;52.364;9.754;2023-07-22T12:39:14;100652.78;;;19.45;54.39
76864;BME280;65834;52.364;9.754;2023-07-22T12:41:44;100646.88;;;19.54;54.15
76864;BME280;65834;52.364;9.754;2023-07-22T12:44:13;100637.25;;;19.51;54.14
76864;BME280;65834;52.364;9.754;2023-07-22T12:46:45;100644.00;;;19.60;53.09
76864;BME280;65834;52.364;9.754;2023-07-22T12:49:15;100635.41;;;19.57;53.00
76864;BME280;65834;52.364;9.754;2023-07-22T12:51:44;100641.38;;;19.65;52.58
76864;BME280;65834;52.364;9.754;2023-07-22T12:54:14;100640.69;;;19.58;53.18
76864;BME280;65834;52.364;9.754;2023-07-22T12:56:44;100643.91;;;19.55;53.09
76864;BME280;65834;52.364;9.754;2023-07-22T12:59:13;100638.28;;;19.62;53.14
76864;BME280;65834;52.364;9.754;2023-07-22T13:01:45;100639.13;;;19.62;53.03
76864;BME280;65834;52.364;9.754;2023-07-22T13:04:15;100629.78;;;19.63;53.43
76864;BME280;65834;52.364;9.754;2023-07-22T13:06:44;100623.72;;;19.61;53.31
76864;BME280;65834;52.364;9.754;2023-07-22T13:09:14;100623.81;;;19.66;53.35
76864;BME280;65834;52.364;9.754;2023-07-22T13:11:44;100628.56;;;19.71;53.51